Primer Ensanche, Spain
Current Conditions -  °F | °C
As of 7:00 AM on Thursday 23 Oct 2014 (Local Time) from LEPP Reporting Station
Clear Clear  
Wind Chill: 41°   Ceiling: Unl
Heat Index: 41°   Visibility: 6mi
Dew Point: 39°   Wind: 0mph
Humidity: 93%   Direction: NA
Pressure: 30.3"   Gusts: NA
Location:  42.81°N, 1.65°W
Report Text: LEPP 230500Z 00000KT CAVOK 05/04 Q1026
Loading
Personal Weather Stations






























Interactive Weather Map
Tropical Storm Tracking
New forecast layout! Learn more

10-Day Weather Forecast

Advertisements
Track Severe Weather on mobile